Time;durP1;ratioP1;P1;durP2;ratioP2;P2;SDS_P1;SDS_P2;PMS_P1;PMS_P2;Temp;Humidity;BMP_temperature;BMP_pressure;BME280_temperature;BME280_humidity;BME280_pressure;Samples;Min_cycle;Max_cycle;Signal;HPM_P1;HPM_P2
2023/04/10 00:01:37;;;;;;;15.80;14.70;;;10.50;20.40;;;;;;5023402;28;20826;-57
2023/04/10 00:04:03;;;;;;;16.70;15.70;;;10.50;20.50;;;;;;5023115;28;20412;-58
2023/04/10 00:06:30;;;;;;;15.97;14.87;;;10.40;20.90;;;;;;5024102;28;20925;-58
2023/04/10 00:08:56;;;;;;;15.70;14.60;;;10.20;21.10;;;;;;5022668;28;20416;-58
2023/04/10 00:11:23;;;;;;;14.50;13.50;;;10.10;21.50;;;;;;5020342;28;21317;-57
2023/04/10 00:13:48;;;;;;;16.37;15.27;;;10.00;21.80;;;;;;5024375;28;20831;-58
2023/04/10 00:16:14;;;;;;;16.10;15.00;;;10.00;21.90;;;;;;5023990;28;20415;-55
2023/04/10 00:18:40;;;;;;;15.77;14.73;;;10.10;21.40;;;;;;5023723;28;20181;-59
2023/04/10 00:21:06;;;;;;;14.47;13.47;;;10.00;21.40;;;;;;5022229;28;20213;-55
2023/04/10 00:23:33;;;;;;;17.37;16.27;;;9.90;22.50;;;;;;5022685;28;20193;-58
2023/04/10 00:25:59;;;;;;;15.80;14.70;;;9.80;22.60;;;;;;5020559;28;20437;-57
2023/04/10 00:28:25;;;;;;;15.73;14.73;;;9.90;22.60;;;;;;5023208;28;20515;-57
2023/04/10 00:30:50;;;;;;;15.20;14.20;;;9.70;22.70;;;;;;5023689;28;20419;-55
2023/04/10 00:33:16;;;;;;;15.53;14.60;;;9.80;22.70;;;;;;5021461;28;20649;-57
2023/04/10 00:35:41;;;;;;;16.47;15.37;;;9.70;22.90;;;;;;5021787;28;20180;-58
2023/04/10 00:38:07;;;;;;;16.10;15.00;;;9.90;22.80;;;;;;5020530;28;20180;-59
2023/04/10 00:40:32;;;;;;;16.83;15.73;;;10.10;21.50;;;;;;5022462;28;20239;-57
2023/04/10 00:42:59;;;;;;;17.90;16.70;;;10.40;21.00;;;;;;5020661;28;20276;-56
2023/04/10 00:45:25;;;;;;;16.93;15.73;;;10.40;20.40;;;;;;5019501;28;20187;-58
2023/04/10 00:47:51;;;;;;;16.13;14.93;;;10.40;20.60;;;;;;5020902;28;20935;-59
2023/04/10 00:50:18;;;;;;;15.50;14.40;;;10.30;20.90;;;;;;5023112;28;20426;-58
2023/04/10 00:52:44;;;;;;;16.90;15.70;;;10.30;21.50;;;;;;5023338;28;20446;-58
2023/04/10 00:55:10;;;;;;;15.80;14.77;;;10.30;20.70;;;;;;5022278;28;20443;-59
2023/04/10 00:57:37;;;;;;;16.43;15.33;;;10.00;21.10;;;;;;5019392;28;20172;-58
2023/04/10 01:00:03;;;;;;;16.70;15.50;;;10.00;21.50;;;;;;5019513;28;20411;-56
2023/04/10 01:02:29;;;;;;;17.30;16.17;;;9.80;22.70;;;;;;5020831;28;20833;-57
2023/04/10 01:04:55;;;;;;;15.47;14.37;;;9.70;22.80;;;;;;5020975;28;20513;-59
2023/04/10 01:07:49;;;;;;;15.70;14.60;;;9.60;23.10;;;;;;5019508;28;20223;-58
2023/04/10 01:10:42;;;;;;;15.63;14.63;;;9.60;23.20;;;;;;5018859;28;20415;-58
2023/04/10 01:13:25;;;;;;;16.17;15.07;;;9.50;23.50;;;;;;5021131;28;20416;-59
2023/04/10 01:16:26;;;;;;;17.17;15.97;;;9.50;23.40;;;;;;5019203;28;20423;-58
2023/04/10 01:19:00;;;;;;;17.70;16.40;;;9.50;23.60;;;;;;4960299;28;20425;-59
2023/04/10 01:21:28;;;;;;;18.33;16.93;;;9.50;23.60;;;;;;5007324;28;20471;-59
2023/04/10 01:24:42;;;;;;;15.83;14.73;;;9.50;23.60;;;;;;5020200;28;20407;-56
2023/04/10 01:27:19;;;;;;;16.07;15.00;;;9.40;23.50;;;;;;5006675;28;20412;-57
2023/04/10 01:29:48;;;;;;;16.80;15.70;;;9.40;23.50;;;;;;5018026;28;20817;-59
2023/04/10 01:32:20;;;;;;;16.20;15.10;;;9.30;23.50;;;;;;5018496;28;20423;-49
2023/04/10 01:34:49;;;;;;;17.43;16.13;;;9.30;23.80;;;;;;5018624;28;20447;-46
2023/04/10 01:37:29;;;;;;;16.50;15.30;;;9.20;23.90;;;;;;5016593;28;20501;-48
2023/04/10 01:40:00;;;;;;;16.20;15.10;;;9.20;24.00;;;;;;5017421;28;20459;-47
2023/04/10 01:42:30;;;;;;;16.47;15.33;;;9.10;24.00;;;;;;5017556;28;20490;-49
2023/04/10 01:44:57;;;;;;;17.50;16.30;;;9.30;23.90;;;;;;5017027;28;20489;-45
2023/04/10 01:47:24;;;;;;;17.03;15.83;;;9.30;24.00;;;;;;5016431;28;20446;-45
2023/04/10 01:49:51;;;;;;;15.30;14.30;;;9.40;23.50;;;;;;5017955;28;20419;-45
2023/04/10 01:52:18;;;;;;;17.67;16.47;;;9.50;23.60;;;;;;5019521;28;20423;-48
2023/04/10 01:54:47;;;;;;;16.60;15.50;;;9.50;23.80;;;;;;5019026;28;20427;-44
2023/04/10 01:57:14;;;;;;;15.93;14.83;;;9.70;23.70;;;;;;5017397;28;20423;-48
2023/04/10 01:59:40;;;;;;;17.17;16.07;;;9.90;23.50;;;;;;5017770;28;20415;-47
2023/04/10 02:02:06;;;;;;;17.87;16.67;;;10.10;22.20;;;;;;5018427;28;20465;-48
2023/04/10 02:04:32;;;;;;;16.90;15.80;;;10.20;21.90;;;;;;5016769;28;20446;-46
2023/04/10 02:07:03;;;;;;;16.53;15.43;;;10.30;21.70;;;;;;5018190;28;20423;-47
2023/04/10 02:09:43;;;;;;;16.33;15.27;;;10.50;21.30;;;;;;5017971;28;20420;-44
2023/04/10 02:12:15;;;;;;;15.40;14.40;;;10.20;21.80;;;;;;5015383;28;20446;-49
2023/04/10 02:14:44;;;;;;;16.13;15.03;;;9.90;23.20;;;;;;5016340;28;20899;-44
2023/04/10 02:17:13;;;;;;;15.50;14.50;;;9.90;23.50;;;;;;5017141;28;20415;-46
2023/04/10 02:19:40;;;;;;;16.90;15.53;;;9.60;23.70;;;;;;5017036;28;20829;-58
2023/04/10 02:22:05;;;;;;;15.97;14.87;;;9.60;23.60;;;;;;5016503;28;20509;-59
2023/04/10 02:24:32;;;;;;;16.33;15.20;;;9.30;23.80;;;;;;5017222;28;20423;-57
2023/04/10 02:26:58;;;;;;;16.33;15.23;;;9.20;23.90;;;;;;5016680;28;20581;-58
2023/04/10 02:29:23;;;;;;;16.47;15.37;;;9.10;24.50;;;;;;5017328;28;20503;-57
2023/04/10 02:31:49;;;;;;;16.07;14.90;;;9.00;24.70;;;;;;5017631;28;20181;-59
2023/04/10 02:34:15;;;;;;;15.10;14.07;;;9.00;24.60;;;;;;5017044;28;20206;-58
2023/04/10 02:36:40;;;;;;;15.23;14.23;;;9.20;24.60;;;;;;5016437;28;20184;-59
2023/04/10 02:39:07;;;;;;;15.53;14.53;;;9.10;24.30;;;;;;5016791;28;20480;-58
2023/04/10 02:41:33;;;;;;;16.13;15.03;;;9.10;24.20;;;;;;5016860;28;20208;-57
2023/04/10 02:43:59;;;;;;;16.33;15.13;;;9.20;24.20;;;;;;5017564;28;20422;-59
2023/04/10 02:46:24;;;;;;;16.07;15.07;;;9.30;23.70;;;;;;5016224;28;20419;-57
2023/04/10 02:48:51;;;;;;;16.40;15.30;;;9.30;23.50;;;;;;5015713;28;20459;-58
2023/04/10 02:51:17;;;;;;;16.40;15.10;;;9.40;23.50;;;;;;5018699;28;20184;-58
2023/04/10 02:53:43;;;;;;;16.00;14.90;;;9.50;23.60;;;;;;5016271;28;20438;-59
2023/04/10 02:56:10;;;;;;;16.20;15.10;;;9.60;23.60;;;;;;5017201;28;20655;-58
2023/04/10 02:58:37;;;;;;;17.33;16.03;;;9.60;23.70;;;;;;5016791;28;20485;-57
2023/04/10 03:01:04;;;;;;;16.73;15.60;;;9.80;23.10;;;;;;5018593;28;20817;-59
2023/04/10 03:03:30;;;;;;;16.47;15.37;;;10.00;22.00;;;;;;5020573;28;20531;-57
2023/04/10 03:05:55;;;;;;;15.23;14.30;;;10.00;21.90;;;;;;5019300;28;20564;-58
2023/04/10 03:08:21;;;;;;;16.37;15.17;;;10.10;21.90;;;;;;5037645;28;20180;-58
2023/04/10 03:10:47;;;;;;;15.57;14.57;;;10.20;21.70;;;;;;5034838;28;20185;-59
2023/04/10 03:13:13;;;;;;;15.80;14.70;;;10.20;21.80;;;;;;5034875;28;20623;-58
2023/04/10 03:15:39;;;;;;;15.70;14.70;;;10.30;21.90;;;;;;5038113;28;20923;-58
2023/04/10 03:18:05;;;;;;;16.10;15.00;;;10.30;21.70;;;;;;5035982;28;20465;-59
2023/04/10 03:20:32;;;;;;;16.30;15.10;;;10.10;22.40;;;;;;5035977;28;20231;-58
2023/04/10 03:22:58;;;;;;;16.00;15.00;;;10.10;22.10;;;;;;5034599;28;20558;-58
2023/04/10 03:25:24;;;;;;;16.23;15.13;;;10.20;22.00;;;;;;5036576;28;20922;-56
2023/04/10 03:27:50;;;;;;;17.57;16.30;;;10.30;21.80;;;;;;5036811;28;20423;-59
2023/04/10 03:30:16;;;;;;;15.90;14.80;;;10.40;21.80;;;;;;5037367;28;20511;-58
2023/04/10 03:32:42;;;;;;;16.30;15.20;;;10.40;21.60;;;;;;5037848;28;20173;-57
2023/04/10 03:35:08;;;;;;;15.90;14.90;;;10.50;21.80;;;;;;5032568;28;20185;-59
2023/04/10 03:37:34;;;;;;;15.37;14.37;;;10.40;21.70;;;;;;5035633;28;20430;-57
2023/04/10 03:40:00;;;;;;;17.37;16.27;;;10.10;21.80;;;;;;5038541;28;20769;-58
2023/04/10 03:42:25;;;;;;;16.23;15.20;;;9.90;22.90;;;;;;5039436;28;20208;-59
2023/04/10 03:44:51;;;;;;;17.17;16.07;;;9.90;23.10;;;;;;5039549;28;20169;-58
2023/04/10 03:47:17;;;;;;;16.97;15.77;;;9.90;22.60;;;;;;5038210;28;20412;-57
2023/04/10 03:49:42;;;;;;;15.83;14.73;;;10.00;21.70;;;;;;5039592;28;20177;-58
2023/04/10 03:52:08;;;;;;;15.70;14.60;;;9.90;22.80;;;;;;5041094;28;20176;-58
2023/04/10 03:54:34;;;;;;;17.00;15.90;;;9.70;23.20;;;;;;5041325;28;20508;-58
2023/04/10 03:57:00;;;;;;;16.63;15.43;;;9.50;23.60;;;;;;5040620;28;20177;-58
2023/04/10 03:59:26;;;;;;;16.60;15.40;;;9.60;23.70;;;;;;5042717;28;20204;-58
2023/04/10 04:01:52;;;;;;;16.23;15.07;;;9.60;23.30;;;;;;5043324;28;20866;-59
2023/04/10 04:04:18;;;;;;;15.37;14.33;;;9.80;23.30;;;;;;5042085;28;20625;-57
2023/04/10 04:06:43;;;;;;;16.17;14.90;;;10.00;22.30;;;;;;5043307;28;20434;-58
2023/04/10 04:09:09;;;;;;;14.57;13.67;;;10.00;21.90;;;;;;5043798;28;20188;-57
2023/04/10 04:11:34;;;;;;;15.77;14.77;;;10.20;22.20;;;;;;5043731;28;20283;-58
2023/04/10 04:14:00;;;;;;;15.97;14.87;;;10.30;21.80;;;;;;5045764;28;20226;-59
2023/04/10 04:16:26;;;;;;;16.83;15.73;;;10.30;21.80;;;;;;5043856;28;20307;-57
2023/04/10 04:18:51;;;;;;;17.20;16.00;;;10.40;21.70;;;;;;5044523;28;20243;-59
2023/04/10 04:21:17;;;;;;;16.30;15.20;;;10.50;21.50;;;;;;5045205;28;20247;-56
2023/04/10 04:23:43;;;;;;;17.83;16.63;;;10.40;21.40;;;;;;5043049;28;20198;-58
2023/04/10 04:26:08;;;;;;;17.90;16.70;;;10.40;21.70;;;;;;5046311;28;20183;-46
2023/04/10 04:28:34;;;;;;;17.80;16.53;;;10.30;21.80;;;;;;5046661;28;20204;-47
2023/04/10 04:31:00;;;;;;;16.87;15.67;;;10.30;21.40;;;;;;5047819;28;20185;-47
2023/04/10 04:33:26;;;;;;;18.33;16.97;;;9.80;23.00;;;;;;5046642;28;20437;-48
2023/04/10 04:35:51;;;;;;;18.83;17.53;;;9.50;23.60;;;;;;5047284;28;20601;-46
2023/04/10 04:38:18;;;;;;;18.20;16.80;;;9.60;23.80;;;;;;5047744;28;20641;-46
2023/04/10 04:40:44;;;;;;;18.30;16.77;;;9.70;23.70;;;;;;5046887;28;20205;-46
2023/04/10 04:43:10;;;;;;;16.80;15.50;;;9.80;23.40;;;;;;5047978;28;20749;-48
2023/04/10 04:45:36;;;;;;;17.20;16.00;;;10.00;22.40;;;;;;5047317;28;20412;-49
2023/04/10 04:48:01;;;;;;;15.70;14.70;;;10.10;22.00;;;;;;5047935;28;20198;-50
2023/04/10 04:50:27;;;;;;;16.13;15.13;;;10.20;21.50;;;;;;5048113;28;20172;-49
2023/04/10 04:52:53;;;;;;;15.60;14.60;;;10.30;21.00;;;;;;5047784;28;20176;-48
2023/04/10 04:55:18;;;;;;;16.07;15.07;;;10.30;20.60;;;;;;5047463;28;20573;-45
2023/04/10 04:57:44;;;;;;;14.80;13.80;;;10.40;20.40;;;;;;5048265;28;20179;-45
2023/04/10 05:00:10;;;;;;;14.97;13.97;;;10.40;20.20;;;;;;5032863;28;20187;-50
2023/04/10 05:02:35;;;;;;;14.20;13.33;;;10.50;20.40;;;;;;5047283;28;20213;-51
2023/04/10 05:05:01;;;;;;;15.97;14.90;;;10.50;20.00;;;;;;5048233;28;20499;-50
2023/04/10 05:07:27;;;;;;;14.60;13.63;;;10.50;19.80;;;;;;5047940;28;20172;-47
2023/04/10 05:09:53;;;;;;;14.90;13.90;;;10.40;19.80;;;;;;5047044;28;20462;-51
2023/04/10 05:12:19;;;;;;;14.60;13.50;;;10.40;19.80;;;;;;5047130;28;20423;-46
2023/04/10 05:14:45;;;;;;;16.50;15.30;;;10.40;19.90;;;;;;5047878;28;20602;-46
2023/04/10 05:17:10;;;;;;;17.23;16.03;;;10.20;20.60;;;;;;5047809;28;20536;-56
2023/04/10 05:19:36;;;;;;;17.10;15.97;;;10.10;21.10;;;;;;5047541;28;20419;-56
2023/04/10 05:22:02;;;;;;;17.73;16.43;;;10.00;21.70;;;;;;5046714;28;20657;-59
2023/04/10 05:24:27;;;;;;;17.10;15.90;;;9.80;22.50;;;;;;5046436;28;20173;-59
2023/04/10 05:26:53;;;;;;;17.67;16.47;;;9.80;22.70;;;;;;5047743;28;20183;-59
2023/04/10 05:29:18;;;;;;;18.07;16.77;;;9.70;23.50;;;;;;5047323;28;20172;-58
2023/04/10 05:31:44;;;;;;;17.10;16.00;;;9.60;23.70;;;;;;5046932;28;20350;-59
2023/04/10 05:34:10;;;;;;;17.27;16.07;;;9.60;23.70;;;;;;5047535;28;20196;-59
2023/04/10 05:36:36;;;;;;;17.37;15.97;;;9.70;23.20;;;;;;5047335;28;20181;-59
2023/04/10 05:39:02;;;;;;;18.07;16.80;;;9.70;23.50;;;;;;5047452;28;20441;-58
2023/04/10 05:41:27;;;;;;;18.30;17.00;;;9.90;23.50;;;;;;5046775;28;20219;-47
2023/04/10 05:43:53;;;;;;;17.33;16.07;;;9.80;23.10;;;;;;5047370;28;20646;-47
2023/04/10 05:46:18;;;;;;;17.70;16.50;;;9.60;24.20;;;;;;5047387;28;20188;-48
2023/04/10 05:48:44;;;;;;;17.23;16.03;;;9.50;23.60;;;;;;5040705;28;20246;-50
2023/04/10 05:51:10;;;;;;;17.57;16.20;;;9.60;24.20;;;;;;5029775;28;20185;-46
2023/04/10 05:53:35;;;;;;;18.43;17.13;;;9.70;23.70;;;;;;5029378;28;20701;-48
2023/04/10 05:56:01;;;;;;;17.33;16.10;;;9.60;23.70;;;;;;5029325;28;20263;-44
2023/04/10 05:58:27;;;;;;;17.40;16.20;;;9.70;23.80;;;;;;5030491;28;20199;-45
2023/04/10 06:00:53;;;;;;;17.70;16.50;;;9.60;23.70;;;;;;5030517;28;20238;-47
2023/04/10 06:03:19;;;;;;;17.80;16.60;;;9.60;23.70;;;;;;5029103;28;20434;-45
2023/04/10 06:09:07;;;;;;;18.93;17.63;;;9.70;23.70;;;;;;5030529;28;20187;-48
2023/04/10 06:11:33;;;;;;;17.33;16.13;;;9.90;23.20;;;;;;5029597;28;20416;-48
2023/04/10 06:13:58;;;;;;;19.23;17.73;;;9.70;23.70;;;;;;5022689;28;20319;-49
2023/04/10 06:16:24;;;;;;;18.73;17.40;;;9.80;23.80;;;;;;5010255;28;20185;-49
2023/04/10 06:18:51;;;;;;;16.77;15.60;;;9.70;23.20;;;;;;5010939;28;20614;-52
2023/04/10 06:21:17;;;;;;;18.30;17.00;;;9.60;22.60;;;;;;5009566;28;20464;-47
2023/04/10 06:23:42;;;;;;;18.87;17.47;;;9.70;23.30;;;;;;5010366;28;20412;-51
2023/04/10 06:26:08;;;;;;;16.60;15.50;;;9.80;22.70;;;;;;5010036;28;20424;-45
2023/04/10 06:28:34;;;;;;;15.97;14.80;;;9.80;22.60;;;;;;5017084;28;20181;-45
2023/04/10 06:31:02;;;;;;;13.93;13.00;;;9.70;23.00;;;;;;5034344;28;20181;-47
2023/04/10 06:33:29;;;;;;;17.03;15.83;;;9.70;22.40;;;;;;5029600;28;20180;-49
2023/04/10 06:35:54;;;;;;;16.20;15.10;;;9.70;23.10;;;;;;5032758;28;20931;-50
2023/04/10 06:38:20;;;;;;;14.73;13.93;;;9.70;22.10;;;;;;5044326;23;20494;-57
2023/04/10 06:40:46;;;;;;;17.40;16.10;;;9.50;22.00;;;;;;4852736;22;20229;-76
2023/04/10 06:43:11;;;;;;;18.67;17.27;;;9.60;22.60;;;;;;5014053;28;20244;-76
2023/04/10 06:45:37;;;;;;;16.57;15.47;;;9.70;23.70;;;;;;5014583;28;20192;-76
2023/04/10 06:48:03;;;;;;;17.23;16.03;;;9.80;23.30;;;;;;5018777;28;20178;-76
2023/04/10 06:50:28;;;;;;;18.27;17.03;;;9.90;22.80;;;;;;5013258;28;20239;-75
2023/04/10 06:52:55;;;;;;;15.87;14.87;;;9.90;22.80;;;;;;5012352;28;20851;-76
2023/04/10 06:55:20;;;;;;;15.07;14.07;;;10.00;21.50;;;;;;5013600;28;20647;-75
2023/04/10 06:57:46;;;;;;;15.23;14.13;;;10.10;20.60;;;;;;5013955;28;20466;-76
2023/04/10 07:00:12;;;;;;;15.80;14.80;;;10.30;21.30;;;;;;5014625;28;20240;-76
2023/04/10 07:02:37;;;;;;;14.60;13.50;;;10.40;20.90;;;;;;5014260;28;20219;-77
2023/04/10 07:05:03;;;;;;;13.33;12.53;;;10.50;19.40;;;;;;5014204;28;20515;-76
2023/04/10 07:07:29;;;;;;;12.87;12.07;;;10.60;18.80;;;;;;5014581;28;20177;-76
2023/04/10 07:09:56;;;;;;;12.87;11.97;;;10.60;18.80;;;;;;5014545;28;20204;-77
2023/04/10 07:12:22;;;;;;;14.77;13.67;;;10.70;18.70;;;;;;5013046;28;20222;-77
2023/04/10 07:14:47;;;;;;;14.57;13.37;;;10.80;18.90;;;;;;5014723;28;20452;-77
2023/04/10 07:17:13;;;;;;;12.37;11.57;;;10.90;18.70;;;;;;5014555;28;20260;-77
2023/04/10 07:19:38;;;;;;;12.50;11.70;;;11.00;18.30;;;;;;5014131;28;20201;-76
2023/04/10 07:22:04;;;;;;;13.47;12.67;;;11.00;17.20;;;;;;5013863;28;20247;-76
2023/04/10 07:24:31;;;;;;;12.97;12.03;;;11.00;17.70;;;;;;5014426;28;20169;-77
2023/04/10 07:26:57;;;;;;;15.23;14.03;;;10.90;18.30;;;;;;5014228;28;20173;-76
2023/04/10 07:29:22;;;;;;;15.23;14.13;;;10.90;17.60;;;;;;5013521;28;20431;-76
2023/04/10 07:31:48;;;;;;;14.33;13.33;;;10.90;18.00;;;;;;5013342;28;20260;-76
2023/04/10 07:34:14;;;;;;;12.43;11.63;;;10.90;18.30;;;;;;5013065;28;20263;-76
2023/04/10 07:36:39;;;;;;;14.47;13.57;;;11.10;18.90;;;;;;5029519;28;20215;-76
2023/04/10 07:39:05;;;;;;;14.50;13.50;;;11.30;18.10;;;;;;5011741;28;20201;-76
2023/04/10 07:41:30;;;;;;;13.10;12.30;;;11.20;16.60;;;;;;5013318;28;20586;-75
2023/04/10 07:43:56;;;;;;;13.90;13.07;;;11.20;16.50;;;;;;5013140;28;20557;-76
2023/04/10 07:46:21;;;;;;;12.00;11.30;;;11.20;16.70;;;;;;5028177;28;20191;-75
2023/04/10 07:48:48;;;;;;;12.90;12.10;;;11.30;16.40;;;;;;5013724;28;20208;-75
2023/04/10 07:51:14;;;;;;;12.43;11.63;;;11.30;16.30;;;;;;5012614;28;20200;-75
2023/04/10 07:53:40;;;;;;;12.13;11.43;;;11.40;15.90;;;;;;5012402;28;20864;-76
2023/04/10 07:56:06;;;;;;;13.07;12.17;;;11.40;15.80;;;;;;5013178;28;20440;-76
2023/04/10 07:58:32;;;;;;;11.70;10.93;;;11.50;15.90;;;;;;5013494;28;20276;-76
2023/04/10 08:00:57;;;;;;;10.87;10.17;;;11.50;14.90;;;;;;5013457;28;20544;-75
2023/04/10 08:03:23;;;;;;;11.37;10.77;;;11.60;14.80;;;;;;5013207;28;20239;-76
2023/04/10 08:05:49;;;;;;;11.10;10.50;;;11.50;14.60;;;;;;5013516;28;20180;-76
2023/04/10 08:08:15;;;;;;;11.30;10.70;;;11.60;14.60;;;;;;5013895;28;20164;-76
2023/04/10 08:10:41;;;;;;;11.03;10.33;;;11.70;14.30;;;;;;5012015;28;20409;-75
2023/04/10 08:13:07;;;;;;;10.07;9.47;;;11.70;14.30;;;;;;5012803;28;20409;-75
2023/04/10 08:15:32;;;;;;;11.23;10.63;;;11.80;14.50;;;;;;5012130;28;20675;-75
2023/04/10 08:17:58;;;;;;;10.27;9.70;;;11.80;14.50;;;;;;5012852;28;20181;-75
2023/04/10 08:20:24;;;;;;;10.20;9.60;;;11.90;13.90;;;;;;5013081;28;20216;-75
2023/04/10 08:22:49;;;;;;;10.30;9.70;;;12.10;14.10;;;;;;5011616;28;20571;-76
2023/04/10 08:25:15;;;;;;;11.53;10.80;;;12.20;13.80;;;;;;5013017;28;20173;-76
2023/04/10 08:27:41;;;;;;;10.40;9.80;;;12.30;14.00;;;;;;5013119;28;20170;-75
2023/04/10 08:30:07;;;;;;;11.10;10.40;;;12.40;13.50;;;;;;5012664;28;20216;-75
2023/04/10 08:32:32;;;;;;;11.40;10.70;;;12.40;13.30;;;;;;5012142;28;20624;-76
2023/04/10 08:34:58;;;;;;;10.53;9.93;;;12.50;13.10;;;;;;5012919;28;20507;-75
2023/04/10 08:37:25;;;;;;;10.77;10.17;;;12.60;12.90;;;;;;5012764;28;20223;-75
2023/04/10 08:39:51;;;;;;;9.73;9.03;;;12.60;12.80;;;;;;5011120;28;20219;-75
2023/04/10 08:42:16;;;;;;;10.40;9.80;;;12.60;13.10;;;;;;5012242;28;20547;-76
2023/04/10 08:44:42;;;;;;;10.40;9.80;;;12.70;12.60;;;;;;5012779;28;20455;-75
2023/04/10 08:47:08;;;;;;;10.20;9.70;;;12.80;12.40;;;;;;5012997;28;20197;-75
2023/04/10 08:49:54;;;;;;;9.33;8.83;;;12.90;12.20;;;;;;5012499;28;20702;-76
2023/04/10 08:52:23;;;;;;;10.93;10.33;;;12.90;11.80;;;;;;5012088;28;20447;-76
2023/04/10 08:54:56;;;;;;;10.00;9.50;;;13.00;12.00;;;;;;5012711;28;20427;-76
2023/04/10 08:57:22;;;;;;;9.67;9.17;;;13.00;11.40;;;;;;5011920;28;20423;-77
2023/04/10 08:59:49;;;;;;;9.30;8.80;;;13.20;11.40;;;;;;5011158;28;20486;-76
2023/04/10 09:02:14;;;;;;;9.30;8.80;;;13.30;11.40;;;;;;5011977;28;20452;-76
2023/04/10 09:04:45;;;;;;;9.57;9.07;;;13.50;11.20;;;;;;5012489;28;20973;-76
2023/04/10 09:07:11;;;;;;;10.27;9.43;;;13.40;11.40;;;;;;5027942;28;20181;-77
2023/04/10 09:09:38;;;;;;;10.57;9.97;;;13.50;11.50;;;;;;5026509;28;20491;-77
2023/04/10 09:12:05;;;;;;;10.67;10.07;;;13.60;11.70;;;;;;5012182;28;20224;-76
2023/04/10 09:14:33;;;;;;;9.37;8.77;;;13.60;11.20;;;;;;5011358;28;20416;-76
2023/04/10 09:17:10;;;;;;;9.80;9.30;;;13.70;11.30;;;;;;5011369;28;21129;-77
2023/04/10 09:19:36;;;;;;;9.80;9.30;;;14.00;11.90;;;;;;5012280;28;21005;-77
2023/04/10 09:22:01;;;;;;;9.40;8.90;;;14.20;10.50;;;;;;5011762;28;20547;-75
2023/04/10 09:24:27;;;;;;;8.57;8.17;;;14.50;10.20;;;;;;5012394;28;20478;-75
2023/04/10 09:26:53;;;;;;;8.17;7.77;;;14.70;10.50;;;;;;5011200;28;20252;-76
2023/04/10 09:29:19;;;;;;;10.23;9.53;;;14.90;9.60;;;;;;5011076;28;20759;-76
2023/04/10 09:31:44;;;;;;;9.03;8.53;;;15.00;9.10;;;;;;5011735;28;20491;-76
2023/04/10 09:34:15;;;;;;;8.13;7.73;;;15.10;9.40;;;;;;5011991;28;20176;-77
2023/04/10 09:37:02;;;;;;;8.37;7.87;;;15.20;9.30;;;;;;5011172;28;20182;-76
2023/04/10 09:39:35;;;;;;;8.53;8.03;;;15.40;8.70;;;;;;5011500;28;20518;-76
2023/04/10 09:42:00;;;;;;;8.87;8.27;;;15.70;9.60;;;;;;5011742;28;20448;-76
2023/04/10 09:44:37;;;;;;;8.70;8.00;;;15.80;8.80;;;;;;5010693;28;20770;-76
2023/04/10 09:47:18;;;;;;;8.07;7.30;;;16.00;7.20;;;;;;5009699;28;20602;-76
2023/04/10 09:49:49;;;;;;;6.40;6.10;;;16.00;6.70;;;;;;5010164;28;20853;-75
2023/04/10 09:52:28;;;;;;;7.70;7.30;;;16.00;6.30;;;;;;5011136;28;20416;-76
2023/04/10 09:55:06;;;;;;;7.50;7.20;;;16.10;6.40;;;;;;4996427;28;20415;-76
2023/04/10 09:57:33;;;;;;;6.80;6.50;;;16.10;6.40;;;;;;5002751;28;20447;-75
2023/04/10 10:00:02;;;;;;;7.60;7.20;;;16.20;6.10;;;;;;5011116;28;20432;-75
2023/04/10 10:02:30;;;;;;;7.40;7.10;;;16.20;5.70;;;;;;5010867;28;20503;-76
2023/04/10 10:04:59;;;;;;;6.67;6.37;;;16.30;6.20;;;;;;5011717;28;20413;-76
2023/04/10 10:07:25;;;;;;;8.00;7.70;;;16.40;6.80;;;;;;5011484;28;20471;-76
2023/04/10 10:09:52;;;;;;;7.40;7.10;;;16.60;5.90;;;;;;5011074;28;20470;-76
2023/04/10 10:12:52;;;;;;;8.10;7.67;;;16.60;6.10;;;;;;5009566;28;20478;-76
2023/04/10 10:15:43;;;;;;;7.33;6.93;;;16.50;6.30;;;;;;5018520;28;20980;-76
2023/04/10 10:18:31;;;;;;;7.50;7.10;;;16.50;6.30;;;;;;5011290;28;20397;-76
2023/04/10 10:20:57;;;;;;;8.47;7.97;;;16.60;5.60;;;;;;5009843;28;20467;-76
2023/04/10 10:23:24;;;;;;;7.20;6.90;;;16.60;5.30;;;;;;4993790;28;20457;-75
2023/04/10 10:25:51;;;;;;;8.17;7.77;;;16.70;5.50;;;;;;4997174;28;20458;-76
2023/04/10 10:28:18;;;;;;;6.57;6.27;;;16.80;5.20;;;;;;5010655;28;20987;-76
2023/04/10 10:30:45;;;;;;;7.07;6.77;;;16.90;4.90;;;;;;5004665;28;20987;-76
2023/04/10 10:33:12;;;;;;;7.87;7.30;;;17.00;4.40;;;;;;5008431;28;20416;-76
2023/04/10 10:35:39;;;;;;;6.80;6.50;;;17.10;3.90;;;;;;5008250;28;20985;-76
2023/04/10 10:38:05;;;;;;;6.27;6.07;;;17.20;3.80;;;;;;5009081;28;20404;-76
2023/04/10 10:40:47;;;;;;;6.77;6.47;;;17.10;2.20;;;;;;5009023;28;20454;-77
2023/04/10 10:43:51;;;;;;;14.17;6.47;;;17.10;2.20;;;;;;5010432;28;20423;-76
2023/04/10 10:46:29;;;;;;;6.87;6.47;;;17.10;2.50;;;;;;4988875;28;20412;-76
2023/04/10 10:48:56;;;;;;;6.20;6.00;;;17.10;2.20;;;;;;5004365;28;20543;-76
2023/04/10 10:51:21;;;;;;;8.20;7.53;;;17.10;2.00;;;;;;5010654;28;20507;-75
2023/04/10 10:53:47;;;;;;;7.57;7.17;;;17.10;2.20;;;;;;5010203;28;21025;-75
2023/04/10 10:56:18;;;;;;;7.17;6.77;;;17.20;1.70;;;;;;5009638;28;20190;-76
2023/04/10 10:58:48;;;;;;;6.90;6.60;;;17.20;1.30;;;;;;5011997;28;20766;-75
2023/04/10 11:01:15;;;;;;;5.87;5.67;;;17.20;1.90;;;;;;5009487;28;21027;-76
2023/04/10 11:03:40;;;;;;;6.00;5.80;;;17.20;1.00;;;;;;5011751;28;20401;-76
2023/04/10 11:06:11;;;;;;;6.20;6.00;;;17.10;1.00;;;;;;5010164;28;20495;-76
2023/04/10 11:08:54;;;;;;;6.70;6.30;;;17.10;1.00;;;;;;5011154;28;20196;-76
2023/04/10 11:11:26;;;;;;;6.83;6.33;;;17.10;1.00;;;;;;5009327;28;20439;-76
2023/04/10 11:13:51;;;;;;;6.10;5.80;;;17.20;1.00;;;;;;5011402;28;21122;-76
2023/04/10 11:16:19;;;;;;;5.67;5.47;;;17.30;1.00;;;;;;5011079;28;20470;-76
2023/04/10 11:18:45;;;;;;;6.20;5.90;;;17.30;1.00;;;;;;5011037;28;20255;-77
2023/04/10 11:21:21;;;;;;;6.43;6.03;;;17.40;1.00;;;;;;5011720;28;20968;-76
2023/04/10 11:23:51;;;;;;;6.30;6.00;;;17.50;1.00;;;;;;5013306;28;20232;-76
2023/04/10 11:26:32;;;;;;;6.40;6.20;;;17.70;1.00;;;;;;5014597;28;20417;-76
2023/04/10 11:28:58;;;;;;;6.40;6.10;;;17.80;1.00;;;;;;5014634;28;20424;-76
2023/04/10 11:31:25;;;;;;;5.90;5.70;;;17.90;1.00;;;;;;5013847;28;20418;-76
2023/04/10 11:34:06;;;;;;;6.67;6.37;;;17.90;1.00;;;;;;5030451;28;20474;-77
2023/04/10 11:36:34;;;;;;;6.83;6.63;;;17.90;1.00;;;;;;5016085;28;20412;-78
2023/04/10 11:39:06;;;;;;;7.00;6.60;;;17.90;1.00;;;;;;5013483;28;20456;-78
2023/04/10 11:41:36;;;;;;;6.20;6.00;;;17.90;1.00;;;;;;5012261;28;20467;-77
2023/04/10 11:44:03;;;;;;;6.10;5.90;;;17.80;1.00;;;;;;5012101;28;20436;-76
2023/04/10 11:46:29;;;;;;;6.23;5.93;;;17.90;1.00;;;;;;5013331;28;20507;-76
2023/04/10 11:49:00;;;;;;;6.27;6.00;;;17.80;1.00;;;;;;5014033;28;20582;-78
2023/04/10 11:51:27;;;;;;;6.23;5.93;;;17.70;1.00;;;;;;5017529;28;20432;-77
2023/04/10 11:54:15;;;;;;;5.17;5.07;;;17.80;1.00;;;;;;5014900;28;20560;-78
2023/04/10 11:56:43;;;;;;;5.43;5.13;;;17.80;1.00;;;;;;5013138;28;20445;-78
2023/04/10 11:59:12;;;;;;;6.00;5.80;;;17.90;1.00;;;;;;5012340;28;20801;-77
2023/04/10 12:01:38;;;;;;;6.20;6.00;;;17.90;1.00;;;;;;5013468;28;20455;-78
2023/04/10 12:04:12;;;;;;;5.70;5.50;;;17.90;1.00;;;;;;5012236;28;20998;-77
2023/04/10 12:06:38;;;;;;;6.57;6.37;;;17.90;1.00;;;;;;5011660;28;20411;-77
2023/04/10 12:09:16;;;;;;;6.00;5.70;;;18.10;1.00;;;;;;5011856;28;20459;-77
2023/04/10 12:11:52;;;;;;;5.97;5.77;;;18.10;1.00;;;;;;5012992;28;20150;-77
2023/04/10 12:14:21;;;;;;;6.50;6.30;;;18.20;1.00;;;;;;5013155;28;20777;-76
2023/04/10 12:16:47;;;;;;;6.63;6.33;;;18.20;1.00;;;;;;5012283;28;20420;-77
2023/04/10 12:19:15;;;;;;;6.87;6.47;;;18.20;1.00;;;;;;5013519;28;21110;-78
2023/04/10 12:21:41;;;;;;;5.80;5.60;;;18.20;1.00;;;;;;5013168;28;20978;-76
2023/04/10 12:24:07;;;;;;;5.40;5.20;;;18.20;1.00;;;;;;5013011;28;20790;-76
2023/04/10 12:26:33;;;;;;;5.67;5.47;;;18.10;1.00;;;;;;5013072;28;20499;-77
2023/04/10 12:28:59;;;;;;;5.97;5.77;;;18.00;1.00;;;;;;5011311;28;20466;-75
2023/04/10 12:31:35;;;;;;;5.17;4.97;;;18.10;1.00;;;;;;5010915;28;20647;-75
2023/04/10 12:34:05;;;;;;;5.53;5.43;;;18.20;1.00;;;;;;5024991;28;20188;-76
2023/04/10 12:36:33;;;;;;;5.60;5.40;;;18.20;1.00;;;;;;5011330;28;20452;-77
2023/04/10 12:39:01;;;;;;;5.50;5.30;;;18.10;1.00;;;;;;5024700;28;21000;-77
2023/04/10 12:41:29;;;;;;;5.80;5.60;;;18.10;1.00;;;;;;5011185;28;20506;-75
2023/04/10 12:44:12;;;;;;;5.30;5.20;;;18.30;1.00;;;;;;5009140;28;20436;-75
2023/04/10 12:46:39;;;;;;;6.97;6.67;;;18.40;1.00;;;;;;5012268;28;20444;-76